createdAt,value
2022-07-29T00:01:43.591Z,21.09
2022-07-29T00:04:14.513Z,21.30
2022-07-29T00:06:42.494Z,21.29
2022-07-29T00:09:09.661Z,21.28
2022-07-29T00:11:36.756Z,20.95
2022-07-29T00:14:04.222Z,21.10
2022-07-29T00:16:31.828Z,21.29
2022-07-29T00:19:02.119Z,21.21
2022-07-29T00:21:30.488Z,21.22
2022-07-29T00:24:00.577Z,20.97
2022-07-29T00:26:32.568Z,21.15
2022-07-29T00:31:55.961Z,21.42
2022-07-29T00:34:41.595Z,21.55
2022-07-29T00:37:08.887Z,21.42
2022-07-29T00:39:36.103Z,21.45
2022-07-29T00:42:05.597Z,21.39
2022-07-29T00:44:41.393Z,21.41
2022-07-29T00:47:13.435Z,21.44
2022-07-29T00:49:42.476Z,21.04
2022-07-29T00:52:11.554Z,21.10
2022-07-29T00:54:44.734Z,20.66
2022-07-29T00:57:15.451Z,20.57
2022-07-29T00:59:45.599Z,20.78
2022-07-29T01:02:12.885Z,20.79
2022-07-29T01:04:40.666Z,20.93
2022-07-29T01:07:08.794Z,20.83
2022-07-29T01:09:45.541Z,20.70
2022-07-29T01:12:20.157Z,20.69
2022-07-29T01:14:49.907Z,20.74
2022-07-29T01:17:52.586Z,20.76
2022-07-29T01:20:31.483Z,20.75
2022-07-29T01:24:09.742Z,20.86
2022-07-29T01:27:33.406Z,20.77
2022-07-29T01:30:57.421Z,20.97
2022-07-29T01:34:23.719Z,20.90
2022-07-29T01:37:19.632Z,20.95
2022-07-29T01:40:43.284Z,20.97
2022-07-29T01:43:45.360Z,20.66
2022-07-29T01:47:09.122Z,20.63
2022-07-29T01:49:42.259Z,20.87
2022-07-29T01:52:20.038Z,20.93
2022-07-29T01:54:57.159Z,20.87
2022-07-29T01:58:21.481Z,20.87
2022-07-29T02:00:53.309Z,20.77
2022-07-29T02:03:22.050Z,20.73
2022-07-29T02:10:25.753Z,20.48
2022-07-29T02:12:55.482Z,20.29
2022-07-29T02:16:19.284Z,20.26
2022-07-29T02:19:43.234Z,19.95
2022-07-29T02:22:15.047Z,20.13
2022-07-29T02:24:44.787Z,20.03
2022-07-29T02:27:13.218Z,20.01
2022-07-29T02:29:41.144Z,20.16
2022-07-29T02:32:10.642Z,20.42
2022-07-29T02:34:39.689Z,20.52
2022-07-29T02:37:11.975Z,20.66
2022-07-29T02:39:42.287Z,20.67
2022-07-29T02:42:13.987Z,20.77
2022-07-29T02:44:41.170Z,20.78
2022-07-29T02:47:26.962Z,20.84
2022-07-29T02:50:10.838Z,20.97
2022-07-29T02:52:45.407Z,21.03
2022-07-29T02:55:30.851Z,20.88
2022-07-29T02:58:29.206Z,20.84
2022-07-29T03:01:03.274Z,20.79
2022-07-29T03:03:37.833Z,20.91
2022-07-29T03:06:06.878Z,20.76
2022-07-29T03:08:35.881Z,20.81
2022-07-29T03:11:06.864Z,20.91
2022-07-29T03:13:36.537Z,20.88
2022-07-29T03:16:07.167Z,20.81
2022-07-29T03:18:36.031Z,20.75
2022-07-29T03:21:04.933Z,20.58
2022-07-29T03:23:35.400Z,20.45
2022-07-29T03:26:04.075Z,20.44
2022-07-29T03:28:31.251Z,20.49
2022-07-29T03:30:58.845Z,20.47
2022-07-29T03:33:26.277Z,20.45
2022-07-29T03:35:53.323Z,20.47
2022-07-29T03:38:21.656Z,20.26
2022-07-29T03:40:59.095Z,20.40
2022-07-29T03:43:30.158Z,20.51
2022-07-29T03:45:59.903Z,20.34
2022-07-29T03:48:30.261Z,20.26
2022-07-29T03:50:58.754Z,20.27
2022-07-29T03:53:25.967Z,20.40
2022-07-29T03:56:00.414Z,20.34
2022-07-29T03:58:31.055Z,20.28
2022-07-29T04:00:59.619Z,20.40
2022-07-29T04:03:26.840Z,20.15
2022-07-29T04:06:07.043Z,19.79
2022-07-29T04:08:35.169Z,20.12
2022-07-29T04:11:03.386Z,20.32
2022-07-29T04:13:34.074Z,20.42
2022-07-29T04:16:01.180Z,20.53
2022-07-29T04:18:28.791Z,20.40
2022-07-29T04:20:56.287Z,20.45
2022-07-29T04:23:27.374Z,20.50
2022-07-29T04:25:54.840Z,20.55
2022-07-29T04:28:22.131Z,20.56
2022-07-29T04:30:49.326Z,20.65
2022-07-29T04:33:22.970Z,20.77
2022-07-29T04:35:55.101Z,20.72
2022-07-29T04:38:23.128Z,20.68
2022-07-29T04:40:50.164Z,20.69
2022-07-29T04:43:22.487Z,20.56
2022-07-29T04:45:50.593Z,20.68
2022-07-29T04:48:17.691Z,20.57
2022-07-29T04:50:45.219Z,20.53
2022-07-29T04:53:12.227Z,20.64
2022-07-29T04:55:39.294Z,20.83
2022-07-29T04:58:09.294Z,20.77
2022-07-29T05:00:36.401Z,20.89
2022-07-29T05:03:04.545Z,20.89
2022-07-29T05:05:31.704Z,20.93
2022-07-29T05:07:59.809Z,21.16
2022-07-29T05:10:27.059Z,21.28
2022-07-29T05:12:54.173Z,21.07
2022-07-29T05:15:21.381Z,21.16
2022-07-29T05:17:50.951Z,21.27
2022-07-29T05:20:19.724Z,21.55
2022-07-29T05:22:47.278Z,21.55
2022-07-29T05:25:16.632Z,21.39
2022-07-29T05:27:47.920Z,21.52
2022-07-29T05:30:18.523Z,21.74
2022-07-29T05:32:46.687Z,21.43
2022-07-29T05:35:15.077Z,21.34
2022-07-29T05:37:42.508Z,21.54
2022-07-29T05:40:10.202Z,21.84
2022-07-29T05:42:37.350Z,21.93
2022-07-29T05:45:06.132Z,22.00
2022-07-29T05:47:34.904Z,22.20
2022-07-29T05:50:01.969Z,21.93
2022-07-29T05:52:29.239Z,22.03
2022-07-29T05:54:57.292Z,21.84
2022-07-29T05:57:25.235Z,22.03
2022-07-29T05:59:52.661Z,22.33
2022-07-29T06:02:19.912Z,22.00
2022-07-29T06:04:47.253Z,22.23
2022-07-29T06:07:14.385Z,22.21
2022-07-29T06:09:41.416Z,22.06
2022-07-29T06:12:09.677Z,22.47
2022-07-29T06:14:36.953Z,22.31
2022-07-29T06:17:04.293Z,22.39
2022-07-29T06:19:31.411Z,22.57
2022-07-29T06:21:58.443Z,22.47
2022-07-29T06:24:25.678Z,22.57
2022-07-29T06:26:58.652Z,22.99
2022-07-29T06:29:25.811Z,23.13
2022-07-29T06:31:52.955Z,23.37
2022-07-29T06:34:20.453Z,23.56
2022-07-29T06:36:47.897Z,23.84
2022-07-29T06:39:15.945Z,23.76
2022-07-29T06:41:43.165Z,23.89
2022-07-29T06:44:15.061Z,24.33
2022-07-29T06:46:42.689Z,24.58
2022-07-29T06:49:10.202Z,24.60
2022-07-29T06:51:37.347Z,24.38
2022-07-29T06:54:08.978Z,24.67
2022-07-29T06:56:40.620Z,24.94
2022-07-29T06:59:10.037Z,25.10
2022-07-29T07:01:44.237Z,25.14
2022-07-29T07:04:12.417Z,25.02
2022-07-29T07:06:40.077Z,25.35
2022-07-29T07:09:07.361Z,25.24
2022-07-29T07:11:34.833Z,25.26
2022-07-29T07:14:03.928Z,25.28
2022-07-29T07:16:32.837Z,25.08
2022-07-29T07:19:00.949Z,25.49
2022-07-29T07:21:30.187Z,25.29
2022-07-29T07:23:57.827Z,25.32
2022-07-29T07:26:24.847Z,25.81
2022-07-29T07:28:52.284Z,26.05
2022-07-29T07:31:19.615Z,26.18
2022-07-29T07:33:46.705Z,25.57
2022-07-29T07:36:13.784Z,25.71
2022-07-29T07:38:43.902Z,25.79
2022-07-29T07:41:10.948Z,25.85
2022-07-29T07:43:47.173Z,25.99
2022-07-29T07:46:17.130Z,26.06
2022-07-29T07:48:44.599Z,26.20
2022-07-29T07:51:12.570Z,25.86
2022-07-29T07:53:39.663Z,26.13
2022-07-29T07:56:12.455Z,26.22
2022-07-29T07:58:45.560Z,26.53
2022-07-29T08:01:12.730Z,26.68
2022-07-29T08:03:39.964Z,26.88
2022-07-29T08:06:09.743Z,26.08
2022-07-29T08:08:36.853Z,26.31
2022-07-29T08:11:09.084Z,26.53
2022-07-29T08:13:38.629Z,26.56
2022-07-29T08:16:16.104Z,26.96
2022-07-29T08:18:45.721Z,27.07
2022-07-29T08:21:16.681Z,27.16
2022-07-29T08:23:57.770Z,27.05
2022-07-29T08:26:26.110Z,27.03
2022-07-29T08:28:53.449Z,27.10
2022-07-29T08:31:20.975Z,27.42
2022-07-29T08:33:48.104Z,27.78
2022-07-29T08:36:18.162Z,28.00
2022-07-29T08:38:45.234Z,28.24
2022-07-29T08:41:12.395Z,28.26
2022-07-29T08:43:41.961Z,28.64
2022-07-29T08:46:09.162Z,28.55
2022-07-29T08:48:37.619Z,28.78
2022-07-29T08:51:06.079Z,28.87
2022-07-29T08:53:34.034Z,28.97
2022-07-29T08:56:05.263Z,28.97
2022-07-29T08:58:36.847Z,28.81
2022-07-29T09:01:07.797Z,28.77
2022-07-29T09:03:41.743Z,28.62
2022-07-29T09:06:14.960Z,27.54
2022-07-29T09:08:42.950Z,28.15
2022-07-29T09:11:12.455Z,28.24
2022-07-29T09:13:42.335Z,28.43
2022-07-29T09:16:12.209Z,28.63
2022-07-29T09:18:43.416Z,28.62
2022-07-29T09:21:36.795Z,28.22
2022-07-29T09:24:13.928Z,28.75
2022-07-29T09:26:46.997Z,29.10
2022-07-29T09:29:17.061Z,29.23
2022-07-29T09:31:48.318Z,29.64
2022-07-29T09:34:23.756Z,30.08
2022-07-29T09:36:55.075Z,30.30
2022-07-29T09:39:36.746Z,30.59
2022-07-29T09:42:06.911Z,30.85
2022-07-29T09:44:51.470Z,31.14
2022-07-29T09:47:26.887Z,31.42
2022-07-29T09:50:05.981Z,31.56
2022-07-29T09:52:33.033Z,31.31
2022-07-29T09:55:08.664Z,31.57
2022-07-29T09:57:35.856Z,31.10
2022-07-29T10:00:15.798Z,31.15
2022-07-29T10:02:50.435Z,31.46
2022-07-29T10:05:27.391Z,31.65
2022-07-29T10:08:04.401Z,31.87
2022-07-29T10:10:38.128Z,32.37
2022-07-29T10:13:16.373Z,32.44
2022-07-29T10:15:47.299Z,32.14
2022-07-29T10:18:20.128Z,32.55
2022-07-29T10:20:57.173Z,30.91
2022-07-29T10:23:25.099Z,31.34
2022-07-29T10:25:52.154Z,32.36
2022-07-29T10:28:22.169Z,32.61
2022-07-29T10:30:52.652Z,33.66
2022-07-29T10:33:44.793Z,33.23
2022-07-29T10:36:43.700Z,32.56
2022-07-29T10:40:29.269Z,32.28
2022-07-29T10:43:52.863Z,32.62
2022-07-29T10:46:22.386Z,31.36
2022-07-29T10:49:49.212Z,29.95
2022-07-29T10:53:14.388Z,30.23
2022-07-29T10:55:43.737Z,30.03
2022-07-29T10:59:08.737Z,30.24
2022-07-29T11:02:41.929Z,30.27
2022-07-29T11:05:13.027Z,29.90
2022-07-29T11:08:39.010Z,29.45
2022-07-29T11:12:04.404Z,29.93
2022-07-29T11:15:02.577Z,30.50
2022-07-29T11:17:46.984Z,30.38
2022-07-29T11:21:13.916Z,29.37
2022-07-29T11:24:50.286Z,28.50
2022-07-29T11:27:46.083Z,28.52
2022-07-29T11:30:14.523Z,26.66
2022-07-29T11:32:48.775Z,20.31
2022-07-29T11:35:37.998Z,18.51
2022-07-29T11:38:32.090Z,18.38
2022-07-29T11:41:20.860Z,17.43
2022-07-29T11:43:56.394Z,17.82
2022-07-29T11:46:50.472Z,18.73
2022-07-29T11:52:11.681Z,19.26
2022-07-29T11:54:58.365Z,18.92
2022-07-29T11:57:36.434Z,19.20
2022-07-29T12:00:12.041Z,19.82
2022-07-29T12:02:43.131Z,21.00
2022-07-29T12:05:11.948Z,21.20
2022-07-29T12:07:03.710Z,19.42
2022-07-29T12:08:22.857Z,21.20
2022-07-29T12:10:51.600Z,21.06
2022-07-29T12:13:42.939Z,21.06
2022-07-29T12:17:30.627Z,-144.85
2022-07-29T12:24:50.122Z,-144.85
2022-07-29T12:28:27.465Z,-144.85
2022-07-29T12:30:56.718Z,21.76
2022-07-29T12:33:32.195Z,21.80
2022-07-29T12:36:07.532Z,21.96
2022-07-29T12:38:36.958Z,21.78
2022-07-29T12:41:05.280Z,21.60
2022-07-29T12:43:35.934Z,21.60
2022-07-29T12:46:15.597Z,21.77
2022-07-29T12:48:44.823Z,22.01
2022-07-29T12:51:17.758Z,22.39
2022-07-29T12:54:06.393Z,22.57
2022-07-29T12:56:44.362Z,22.93
2022-07-29T12:59:13.849Z,23.38
2022-07-29T13:01:45.118Z,23.23
2022-07-29T13:04:25.578Z,23.63
2022-07-29T13:07:54.937Z,24.15
2022-07-29T13:10:19.559Z,24.90
2022-07-29T13:13:29.740Z,25.00
2022-07-29T13:16:34.729Z,25.46
2022-07-29T13:19:12.185Z,25.60
2022-07-29T13:22:17.368Z,24.92
2022-07-29T13:25:22.254Z,23.94
2022-07-29T13:27:49.730Z,24.52
2022-07-29T13:30:54.952Z,25.17
2022-07-29T13:34:05.547Z,24.98
2022-07-29T13:37:10.768Z,24.87
2022-07-29T13:39:42.369Z,25.51
2022-07-29T13:43:03.017Z,25.70
2022-07-29T13:45:31.505Z,25.64
2022-07-29T13:48:36.625Z,25.73
2022-07-29T13:51:44.731Z,25.67
2022-07-29T13:54:12.197Z,26.02
2022-07-29T13:56:40.606Z,26.45
2022-07-29T13:59:11.523Z,26.49
2022-07-29T14:02:17.283Z,26.65
2022-07-29T14:04:44.728Z,26.52
2022-07-29T14:07:16.271Z,26.57
2022-07-29T14:09:46.990Z,27.32
2022-07-29T14:12:14.519Z,27.27
2022-07-29T14:14:44.868Z,27.42
2022-07-29T14:17:16.233Z,26.38
2022-07-29T14:19:44.185Z,26.83
2022-07-29T14:22:12.082Z,26.92
2022-07-29T14:24:40.236Z,27.74
2022-07-29T14:27:09.011Z,27.56
2022-07-29T14:29:38.810Z,27.73
2022-07-29T14:32:11.141Z,28.11
2022-07-29T14:34:39.374Z,28.03
2022-07-29T14:37:07.741Z,27.16
2022-07-29T14:39:42.860Z,27.19
2022-07-29T14:42:13.132Z,27.36
2022-07-29T14:44:43.378Z,27.52
2022-07-29T14:47:12.487Z,27.51
2022-07-29T14:49:40.224Z,27.80
2022-07-29T14:52:10.610Z,28.18
2022-07-29T14:54:38.166Z,28.31
2022-07-29T14:57:07.828Z,28.26
2022-07-29T14:59:35.773Z,27.99
2022-07-29T15:02:03.877Z,27.87
2022-07-29T15:04:31.677Z,27.91
2022-07-29T15:06:59.105Z,27.50
2022-07-29T15:09:26.514Z,27.61
2022-07-29T15:11:56.936Z,27.99
2022-07-29T15:14:24.560Z,28.11
2022-07-29T15:16:52.754Z,27.44
2022-07-29T15:19:20.798Z,27.66
2022-07-29T15:21:49.200Z,27.65
2022-07-29T15:24:20.097Z,28.11
2022-07-29T15:26:48.492Z,27.88
2022-07-29T15:29:19.416Z,27.83
2022-07-29T15:31:47.239Z,27.66
2022-07-29T15:34:17.572Z,28.11
2022-07-29T15:36:53.318Z,28.24
2022-07-29T15:39:22.412Z,28.67
2022-07-29T15:41:52.760Z,28.55
2022-07-29T15:44:20.998Z,28.66
2022-07-29T15:47:04.385Z,28.14
2022-07-29T15:49:47.887Z,28.54
2022-07-29T15:52:24.749Z,28.55
2022-07-29T15:54:57.696Z,28.80
2022-07-29T15:57:29.940Z,28.33
2022-07-29T15:59:57.422Z,28.61
2022-07-29T16:02:27.113Z,29.15
2022-07-29T16:04:55.066Z,29.37
2022-07-29T16:07:22.559Z,29.49
2022-07-29T16:09:53.319Z,29.54
2022-07-29T16:12:20.977Z,29.76
2022-07-29T16:14:49.483Z,29.66
2022-07-29T16:17:17.734Z,29.92
2022-07-29T16:19:46.119Z,29.70
2022-07-29T16:22:18.871Z,29.77
2022-07-29T16:24:49.334Z,29.24
2022-07-29T16:27:27.044Z,28.66
2022-07-29T16:30:09.520Z,28.94
2022-07-29T16:32:40.193Z,29.23
2022-07-29T16:35:08.464Z,28.51
2022-07-29T16:37:37.093Z,28.82
2022-07-29T16:40:05.182Z,29.06
2022-07-29T16:42:46.439Z,29.32
2022-07-29T16:45:16.359Z,29.55
2022-07-29T16:47:45.638Z,29.80
2022-07-29T16:50:13.420Z,29.79
2022-07-29T16:52:41.242Z,26.41
2022-07-29T16:55:08.966Z,25.77
2022-07-29T16:57:36.841Z,25.72
2022-07-29T17:00:11.330Z,25.31
2022-07-29T17:02:39.161Z,25.47
2022-07-29T17:05:10.770Z,25.45
2022-07-29T17:07:43.833Z,25.57
2022-07-29T17:10:11.387Z,25.26
2022-07-29T17:12:43.055Z,25.47
2022-07-29T17:15:12.999Z,25.40
2022-07-29T17:17:55.236Z,25.05
2022-07-29T17:20:24.572Z,25.08
2022-07-29T17:22:52.515Z,25.03
2022-07-29T17:25:21.334Z,25.02
2022-07-29T17:27:50.770Z,24.94
2022-07-29T17:30:18.883Z,24.95
2022-07-29T17:32:46.501Z,25.05
2022-07-29T17:35:32.687Z,25.04
2022-07-29T17:38:00.235Z,25.01
2022-07-29T17:40:27.926Z,25.01
2022-07-29T17:42:55.590Z,24.81
2022-07-29T17:45:24.589Z,24.86
2022-07-29T17:47:52.044Z,24.88
2022-07-29T17:50:19.523Z,24.98
2022-07-29T17:52:47.029Z,25.10
2022-07-29T17:55:14.488Z,25.06
2022-07-29T17:57:42.295Z,25.13
2022-07-29T18:00:10.851Z,25.24
2022-07-29T18:02:38.598Z,25.37
2022-07-29T18:05:06.280Z,25.25
2022-07-29T18:07:33.752Z,25.38
2022-07-29T18:10:01.388Z,25.55
2022-07-29T18:12:28.857Z,25.48
2022-07-29T18:14:56.289Z,25.64
2022-07-29T18:17:52.730Z,25.66
2022-07-29T18:20:13.990Z,25.79
2022-07-29T18:22:44.253Z,25.83
2022-07-29T18:25:11.889Z,25.80
2022-07-29T18:27:41.871Z,25.82
2022-07-29T18:30:09.648Z,25.57
2022-07-29T18:32:40.032Z,25.53
2022-07-29T18:35:10.647Z,25.41
2022-07-29T18:38:01.264Z,25.52
2022-07-29T18:40:26.482Z,25.62
2022-07-29T18:42:57.164Z,25.25
2022-07-29T18:45:28.485Z,25.28
2022-07-29T18:47:56.989Z,25.01
2022-07-29T18:50:29.533Z,25.08
2022-07-29T18:52:58.829Z,25.00
2022-07-29T18:55:32.139Z,24.88
2022-07-29T18:58:02.917Z,24.81
2022-07-29T19:00:30.884Z,24.68
2022-07-29T19:02:58.793Z,24.72
2022-07-29T19:05:26.480Z,24.59
2022-07-29T19:07:56.024Z,24.20
2022-07-29T19:10:23.641Z,23.93
2022-07-29T19:12:51.329Z,23.75
2022-07-29T19:15:20.260Z,23.48
2022-07-29T19:17:51.268Z,23.52
2022-07-29T19:20:19.189Z,23.78
2022-07-29T19:22:49.631Z,23.76
2022-07-29T19:25:19.749Z,23.81
2022-07-29T19:27:47.404Z,23.90
2022-07-29T19:30:15.944Z,23.70
2022-07-29T19:32:43.697Z,23.71
2022-07-29T19:35:30.319Z,23.70
2022-07-29T19:38:00.087Z,23.68
2022-07-29T19:40:28.798Z,23.51
2022-07-29T19:42:56.664Z,23.59
2022-07-29T19:45:24.866Z,23.69
2022-07-29T19:48:01.685Z,23.65
2022-07-29T19:50:29.688Z,23.45
2022-07-29T19:52:57.527Z,23.42
2022-07-29T19:55:25.141Z,23.55
2022-07-29T19:57:52.725Z,23.58
2022-07-29T20:00:21.403Z,23.59
2022-07-29T20:02:50.845Z,23.64
2022-07-29T20:05:21.067Z,23.65
2022-07-29T20:07:58.542Z,23.66
2022-07-29T20:10:26.154Z,23.71
2022-07-29T20:12:55.018Z,23.70
2022-07-29T20:15:22.983Z,23.69
2022-07-29T20:17:55.165Z,23.63
2022-07-29T20:20:25.194Z,23.60
2022-07-29T20:22:55.126Z,23.53
2022-07-29T20:25:23.126Z,23.49
2022-07-29T20:27:52.392Z,23.40
2022-07-29T20:30:22.618Z,23.32
2022-07-29T20:32:51.234Z,22.72
2022-07-29T20:35:56.659Z,22.89
2022-07-29T20:39:04.771Z,23.05
2022-07-29T20:41:37.521Z,22.73
2022-07-29T20:44:05.361Z,22.76
2022-07-29T20:47:10.721Z,22.83
2022-07-29T20:50:15.995Z,22.81
2022-07-29T20:52:44.130Z,22.62
2022-07-29T20:55:49.318Z,22.62
2022-07-29T20:58:54.418Z,22.41
2022-07-29T21:01:22.099Z,22.25
2022-07-29T21:04:30.629Z,22.31
2022-07-29T21:07:00.430Z,22.30
2022-07-29T21:09:28.352Z,22.35
2022-07-29T21:12:33.834Z,22.13
2022-07-29T21:15:38.991Z,22.13
2022-07-29T21:18:16.114Z,22.23
2022-07-29T21:21:21.752Z,22.18
2022-07-29T21:23:49.235Z,22.08
2022-07-29T21:26:18.293Z,21.98
2022-07-29T21:28:45.944Z,22.02
2022-07-29T21:31:20.180Z,21.97
2022-07-29T21:34:28.468Z,21.85
2022-07-29T21:36:55.963Z,21.83
2022-07-29T21:39:23.749Z,21.77
2022-07-29T21:41:54.282Z,21.67
2022-07-29T21:44:23.285Z,21.84
2022-07-29T21:46:50.749Z,21.76
2022-07-29T21:49:18.540Z,21.78
2022-07-29T21:51:46.055Z,21.78
2022-07-29T21:54:13.536Z,21.70
2022-07-29T21:56:41.525Z,21.62
2022-07-29T21:59:09.687Z,21.59
2022-07-29T22:01:39.195Z,21.53
2022-07-29T22:04:07.186Z,21.62
2022-07-29T22:06:34.654Z,21.48
2022-07-29T22:09:05.821Z,21.68
2022-07-29T22:11:33.303Z,21.52
2022-07-29T22:14:00.734Z,21.41
2022-07-29T22:16:28.235Z,21.60
2022-07-29T22:18:55.914Z,21.68
2022-07-29T22:22:01.444Z,21.73
2022-07-29T22:25:07.248Z,21.76
2022-07-29T22:28:12.745Z,21.73
2022-07-29T22:30:42.835Z,21.72
2022-07-29T22:33:17.824Z,21.69
2022-07-29T22:35:48.554Z,21.63
2022-07-29T22:38:20.268Z,21.67
2022-07-29T22:41:25.391Z,21.62
2022-07-29T22:44:30.568Z,21.38
2022-07-29T22:47:38.960Z,21.38
2022-07-29T22:50:14.313Z,21.36
2022-07-29T22:53:19.631Z,21.33
2022-07-29T22:56:25.367Z,21.27
2022-07-29T22:58:55.393Z,21.26
2022-07-29T23:01:37.105Z,21.20
2022-07-29T23:04:06.327Z,21.19
2022-07-29T23:07:11.442Z,21.10
2022-07-29T23:09:39.807Z,21.01
2022-07-29T23:12:44.929Z,20.94
2022-07-29T23:15:14.973Z,21.04
2022-07-29T23:18:20.142Z,21.01
2022-07-29T23:20:47.559Z,21.00
2022-07-29T23:23:18.037Z,20.99
2022-07-29T23:25:45.571Z,20.96
2022-07-29T23:28:14.175Z,20.78
2022-07-29T23:30:42.396Z,20.81
2022-07-29T23:33:48.297Z,20.83
2022-07-29T23:36:20.755Z,20.85
2022-07-29T23:39:28.401Z,20.78
2022-07-29T23:41:55.876Z,20.67
2022-07-29T23:44:23.418Z,20.38
2022-07-29T23:46:56.433Z,20.60
2022-07-29T23:50:04.156Z,20.54
2022-07-29T23:53:09.487Z,20.62
2022-07-29T23:56:14.904Z,20.41
2022-07-29T23:59:20.533Z,20.59
